sensor_id;sensor_type;location;lat;lon;timestamp;pressure;altitude;pressure_sealevel;temperature;humidity
62057;BME280;48016;50.284;18.860;2023-05-16T00:02:17;97590.38;;;10.35;82.60
62057;BME280;48016;50.284;18.860;2023-05-16T00:04:44;97592.06;;;10.35;82.54
62057;BME280;48016;50.284;18.860;2023-05-16T00:07:11;97590.60;;;10.34;82.68
62057;BME280;48016;50.284;18.860;2023-05-16T00:09:38;97588.76;;;10.35;82.73
62057;BME280;48016;50.284;18.860;2023-05-16T00:15:28;97593.14;;;10.38;83.18
62057;BME280;48016;50.284;18.860;2023-05-16T00:17:58;97591.90;;;10.40;83.07
62057;BME280;48016;50.284;18.860;2023-05-16T00:20:25;97594.98;;;10.40;83.03
62057;BME280;48016;50.284;18.860;2023-05-16T00:22:53;97594.33;;;10.38;83.06
62057;BME280;48016;50.284;18.860;2023-05-16T00:25:20;97593.30;;;10.37;83.14
62057;BME280;48016;50.284;18.860;2023-05-16T00:27:46;97591.35;;;10.37;83.24
62057;BME280;48016;50.284;18.860;2023-05-16T00:30:13;97589.84;;;10.37;83.15
62057;BME280;48016;50.284;18.860;2023-05-16T00:32:40;97589.63;;;10.39;83.24
62057;BME280;48016;50.284;18.860;2023-05-16T00:35:06;97587.84;;;10.39;83.25
62057;BME280;48016;50.284;18.860;2023-05-16T00:37:36;97589.73;;;10.40;83.36
62057;BME280;48016;50.284;18.860;2023-05-16T00:40:04;97589.73;;;10.42;83.37
62057;BME280;48016;50.284;18.860;2023-05-16T00:42:31;97589.38;;;10.42;83.31
62057;BME280;48016;50.284;18.860;2023-05-16T00:44:58;97593.19;;;10.38;83.46
62057;BME280;48016;50.284;18.860;2023-05-16T00:47:25;97593.58;;;10.39;83.27
62057;BME280;48016;50.284;18.860;2023-05-16T00:49:51;97596.86;;;10.38;83.33
62057;BME280;48016;50.284;18.860;2023-05-16T00:52:18;97601.95;;;10.39;83.23
62057;BME280;48016;50.284;18.860;2023-05-16T00:54:45;97596.88;;;10.39;83.36
62057;BME280;48016;50.284;18.860;2023-05-16T00:57:11;97596.77;;;10.37;83.34
62057;BME280;48016;50.284;18.860;2023-05-16T00:59:38;97597.30;;;10.37;83.33
62057;BME280;48016;50.284;18.860;2023-05-16T01:02:06;97590.65;;;10.35;83.29
62057;BME280;48016;50.284;18.860;2023-05-16T01:04:32;97591.52;;;10.31;83.36
62057;BME280;48016;50.284;18.860;2023-05-16T01:06:59;97588.98;;;10.29;83.35
62057;BME280;48016;50.284;18.860;2023-05-16T01:09:26;97583.55;;;10.25;83.28
62057;BME280;48016;50.284;18.860;2023-05-16T01:12:02;97582.24;;;10.18;83.23
62057;BME280;48016;50.284;18.860;2023-05-16T01:14:50;97581.60;;;10.13;83.16
62057;BME280;48016;50.284;18.860;2023-05-16T01:17:28;97585.87;;;10.08;83.26
62057;BME280;48016;50.284;18.860;2023-05-16T01:27:54;97585.95;;;9.89;83.38
62057;BME280;48016;50.284;18.860;2023-05-16T01:30:22;97585.94;;;9.86;83.55
62057;BME280;48016;50.284;18.860;2023-05-16T01:32:49;97589.45;;;9.82;83.63
62057;BME280;48016;50.284;18.860;2023-05-16T01:35:16;97588.95;;;9.79;83.79
62057;BME280;48016;50.284;18.860;2023-05-16T01:40:16;97590.19;;;9.73;83.90
62057;BME280;48016;50.284;18.860;2023-05-16T01:42:47;97592.08;;;9.72;84.03
62057;BME280;48016;50.284;18.860;2023-05-16T01:45:28;97588.51;;;9.71;83.86
62057;BME280;48016;50.284;18.860;2023-05-16T01:48:06;97588.29;;;9.71;84.23
62057;BME280;48016;50.284;18.860;2023-05-16T01:50:38;97589.48;;;9.70;84.35
62057;BME280;48016;50.284;18.860;2023-05-16T01:53:14;97594.23;;;9.70;84.32
62057;BME280;48016;50.284;18.860;2023-05-16T01:55:46;97591.64;;;9.72;84.30
62057;BME280;48016;50.284;18.860;2023-05-16T01:58:14;97592.14;;;9.73;84.36
62057;BME280;48016;50.284;18.860;2023-05-16T02:00:41;97594.77;;;9.77;84.43
62057;BME280;48016;50.284;18.860;2023-05-16T02:03:08;97594.23;;;9.80;84.48
62057;BME280;48016;50.284;18.860;2023-05-16T02:05:34;97597.23;;;9.82;84.45
62057;BME280;48016;50.284;18.860;2023-05-16T02:08:01;97603.11;;;9.83;84.41
62057;BME280;48016;50.284;18.860;2023-05-16T02:10:29;97606.19;;;9.83;84.37
62057;BME280;48016;50.284;18.860;2023-05-16T02:12:56;97610.34;;;9.81;84.36
62057;BME280;48016;50.284;18.860;2023-05-16T02:15:23;97607.16;;;9.80;84.48
62057;BME280;48016;50.284;18.860;2023-05-16T02:17:49;97600.57;;;9.81;84.42
62057;BME280;48016;50.284;18.860;2023-05-16T02:20:16;97602.41;;;9.81;84.37
62057;BME280;48016;50.284;18.860;2023-05-16T02:22:43;97605.38;;;9.82;84.35
62057;BME280;48016;50.284;18.860;2023-05-16T02:25:09;97601.11;;;9.81;84.17
62057;BME280;48016;50.284;18.860;2023-05-16T02:27:36;97601.59;;;9.81;84.20
62057;BME280;48016;50.284;18.860;2023-05-16T02:30:03;97598.52;;;9.80;84.12
62057;BME280;48016;50.284;18.860;2023-05-16T02:32:31;97595.76;;;9.79;84.09
62057;BME280;48016;50.284;18.860;2023-05-16T02:34:59;97601.52;;;9.77;83.93
62057;BME280;48016;50.284;18.860;2023-05-16T02:37:25;97604.00;;;9.74;84.05
62057;BME280;48016;50.284;18.860;2023-05-16T02:39:52;97600.33;;;9.71;84.06
62057;BME280;48016;50.284;18.860;2023-05-16T02:42:18;97603.83;;;9.69;84.19
62057;BME280;48016;50.284;18.860;2023-05-16T02:44:45;97600.85;;;9.68;84.32
62057;BME280;48016;50.284;18.860;2023-05-16T02:47:12;97607.17;;;9.69;84.17
62057;BME280;48016;50.284;18.860;2023-05-16T02:49:38;97610.04;;;9.68;84.11
62057;BME280;48016;50.284;18.860;2023-05-16T02:52:05;97613.82;;;9.69;84.15
62057;BME280;48016;50.284;18.860;2023-05-16T02:54:31;97608.14;;;9.68;84.03
62057;BME280;48016;50.284;18.860;2023-05-16T02:56:58;97601.39;;;9.65;84.01
62057;BME280;48016;50.284;18.860;2023-05-16T02:59:24;97600.26;;;9.65;84.05
62057;BME280;48016;50.284;18.860;2023-05-16T03:01:51;97601.45;;;9.62;84.06
62057;BME280;48016;50.284;18.860;2023-05-16T03:04:18;97599.54;;;9.62;83.98
62057;BME280;48016;50.284;18.860;2023-05-16T03:06:44;97604.46;;;9.61;84.13
62057;BME280;48016;50.284;18.860;2023-05-16T03:09:12;97603.11;;;9.61;84.26
62057;BME280;48016;50.284;18.860;2023-05-16T03:11:38;97609.48;;;9.64;84.28
62057;BME280;48016;50.284;18.860;2023-05-16T03:14:05;97611.07;;;9.69;84.09
62057;BME280;48016;50.284;18.860;2023-05-16T03:16:32;97613.45;;;9.73;83.99
62057;BME280;48016;50.284;18.860;2023-05-16T03:18:58;97614.86;;;9.76;84.05
62057;BME280;48016;50.284;18.860;2023-05-16T03:21:25;97616.98;;;9.79;83.92
62057;BME280;48016;50.284;18.860;2023-05-16T03:23:51;97616.84;;;9.83;83.95
62057;BME280;48016;50.284;18.860;2023-05-16T03:26:20;97621.64;;;9.87;83.84
62057;BME280;48016;50.284;18.860;2023-05-16T03:28:48;97623.81;;;9.92;83.82
62057;BME280;48016;50.284;18.860;2023-05-16T03:31:14;97630.30;;;9.99;83.64
62057;BME280;48016;50.284;18.860;2023-05-16T03:33:41;97637.06;;;10.04;83.68
62057;BME280;48016;50.284;18.860;2023-05-16T03:36:09;97640.48;;;10.10;83.64
62057;BME280;48016;50.284;18.860;2023-05-16T03:38:36;97637.34;;;10.15;83.65
62057;BME280;48016;50.284;18.860;2023-05-16T03:41:02;97640.27;;;10.20;83.59
62057;BME280;48016;50.284;18.860;2023-05-16T03:43:29;97638.33;;;10.23;83.48
62057;BME280;48016;50.284;18.860;2023-05-16T03:45:56;97639.60;;;10.29;83.36
62057;BME280;48016;50.284;18.860;2023-05-16T03:48:23;97636.15;;;10.36;83.27
62057;BME280;48016;50.284;18.860;2023-05-16T03:50:49;97638.16;;;10.43;83.10
62057;BME280;48016;50.284;18.860;2023-05-16T03:53:16;97642.00;;;10.48;82.98
62057;BME280;48016;50.284;18.860;2023-05-16T03:55:43;97638.16;;;10.56;82.96
62057;BME280;48016;50.284;18.860;2023-05-16T03:58:09;97638.52;;;10.69;82.71
62057;BME280;48016;50.284;18.860;2023-05-16T04:00:36;97639.66;;;10.82;82.64
62057;BME280;48016;50.284;18.860;2023-05-16T04:03:03;97640.89;;;10.95;82.43
62057;BME280;48016;50.284;18.860;2023-05-16T04:05:30;97644.43;;;11.07;82.18
62057;BME280;48016;50.284;18.860;2023-05-16T04:07:57;97640.67;;;11.20;81.96
62057;BME280;48016;50.284;18.860;2023-05-16T04:10:23;97644.73;;;11.40;81.75
62057;BME280;48016;50.284;18.860;2023-05-16T04:12:50;97646.88;;;11.58;81.45
62057;BME280;48016;50.284;18.860;2023-05-16T04:15:16;97643.96;;;11.78;81.11
62057;BME280;48016;50.284;18.860;2023-05-16T04:17:43;97642.10;;;11.97;80.73
62057;BME280;48016;50.284;18.860;2023-05-16T04:20:10;97638.89;;;12.17;80.43
62057;BME280;48016;50.284;18.860;2023-05-16T04:22:37;97645.87;;;12.42;80.06
62057;BME280;48016;50.284;18.860;2023-05-16T04:25:03;97648.38;;;12.74;79.68
62057;BME280;48016;50.284;18.860;2023-05-16T04:27:30;97653.23;;;13.12;78.94
62057;BME280;48016;50.284;18.860;2023-05-16T04:29:57;97657.89;;;13.51;78.39
62057;BME280;48016;50.284;18.860;2023-05-16T04:32:25;97663.29;;;13.86;77.59
62057;BME280;48016;50.284;18.860;2023-05-16T04:34:54;97670.45;;;14.25;76.89
62057;BME280;48016;50.284;18.860;2023-05-16T04:37:20;97672.18;;;14.60;75.57
62057;BME280;48016;50.284;18.860;2023-05-16T04:39:47;97674.36;;;14.94;74.16
62057;BME280;48016;50.284;18.860;2023-05-16T04:42:14;97673.40;;;15.24;73.87
62057;BME280;48016;50.284;18.860;2023-05-16T04:44:41;97673.06;;;15.51;72.71
62057;BME280;48016;50.284;18.860;2023-05-16T04:47:09;97674.54;;;15.71;72.34
62057;BME280;48016;50.284;18.860;2023-05-16T04:49:36;97676.55;;;15.85;71.49
62057;BME280;48016;50.284;18.860;2023-05-16T04:52:03;97682.61;;;15.95;70.89
62057;BME280;48016;50.284;18.860;2023-05-16T04:54:29;97686.84;;;16.06;69.94
62057;BME280;48016;50.284;18.860;2023-05-16T04:56:56;97690.23;;;16.18;69.28
62057;BME280;48016;50.284;18.860;2023-05-16T04:59:22;97694.94;;;16.33;68.67
62057;BME280;48016;50.284;18.860;2023-05-16T05:01:49;97689.88;;;16.54;68.74
62057;BME280;48016;50.284;18.860;2023-05-16T05:04:16;97688.91;;;16.69;67.67
62057;BME280;48016;50.284;18.860;2023-05-16T05:06:43;97690.58;;;16.85;67.04
62057;BME280;48016;50.284;18.860;2023-05-16T05:09:09;97689.80;;;17.01;66.38
62057;BME280;48016;50.284;18.860;2023-05-16T05:11:36;97695.05;;;17.18;65.69
62057;BME280;48016;50.284;18.860;2023-05-16T05:14:03;97694.27;;;17.34;65.53
62057;BME280;48016;50.284;18.860;2023-05-16T05:16:29;97700.69;;;17.53;65.15
62057;BME280;48016;50.284;18.860;2023-05-16T05:18:56;97700.20;;;17.71;64.69
62057;BME280;48016;50.284;18.860;2023-05-16T05:21:23;97703.84;;;17.80;64.04
62057;BME280;48016;50.284;18.860;2023-05-16T05:23:50;97700.04;;;17.87;63.23
62057;BME280;48016;50.284;18.860;2023-05-16T05:26:17;97703.44;;;17.95;63.24
62057;BME280;48016;50.284;18.860;2023-05-16T05:28:44;97704.46;;;18.04;62.74
62057;BME280;48016;50.284;18.860;2023-05-16T05:31:10;97706.77;;;18.18;62.62
62057;BME280;48016;50.284;18.860;2023-05-16T05:33:37;97708.44;;;18.28;62.40
62057;BME280;48016;50.284;18.860;2023-05-16T05:36:04;97710.96;;;18.35;61.99
62057;BME280;48016;50.284;18.860;2023-05-16T05:38:31;97707.06;;;18.39;60.30
62057;BME280;48016;50.284;18.860;2023-05-16T05:40:57;97703.75;;;18.41;60.92
62057;BME280;48016;50.284;18.860;2023-05-16T05:43:24;97704.13;;;18.53;60.92
62057;BME280;48016;50.284;18.860;2023-05-16T05:45:51;97707.35;;;18.60;60.20
62057;BME280;48016;50.284;18.860;2023-05-16T05:48:17;97702.49;;;18.74;60.43
62057;BME280;48016;50.284;18.860;2023-05-16T05:50:44;97710.09;;;18.97;60.28
62057;BME280;48016;50.284;18.860;2023-05-16T05:53:11;97707.11;;;19.24;60.10
62057;BME280;48016;50.284;18.860;2023-05-16T05:55:38;97710.20;;;19.52;59.67
62057;BME280;48016;50.284;18.860;2023-05-16T05:58:07;97701.04;;;19.76;58.63
62057;BME280;48016;50.284;18.860;2023-05-16T06:00:33;97698.70;;;19.84;58.37
62057;BME280;48016;50.284;18.860;2023-05-16T06:03:00;97697.41;;;19.84;57.84
62057;BME280;48016;50.284;18.860;2023-05-16T06:05:27;97704.40;;;19.90;57.20
62057;BME280;48016;50.284;18.860;2023-05-16T06:07:53;97707.89;;;20.11;56.49
62057;BME280;48016;50.284;18.860;2023-05-16T06:10:20;97706.74;;;20.38;56.17
62057;BME280;48016;50.284;18.860;2023-05-16T06:12:47;97709.98;;;20.69;55.59
62057;BME280;48016;50.284;18.860;2023-05-16T06:15:13;97709.61;;;20.97;54.83
62057;BME280;48016;50.284;18.860;2023-05-16T06:17:40;97711.39;;;21.20;53.76
62057;BME280;48016;50.284;18.860;2023-05-16T06:20:07;97711.14;;;21.37;54.03
62057;BME280;48016;50.284;18.860;2023-05-16T06:22:33;97711.08;;;21.44;53.98
62057;BME280;48016;50.284;18.860;2023-05-16T06:25:00;97714.89;;;21.43;52.48
62057;BME280;48016;50.284;18.860;2023-05-16T06:27:27;97716.46;;;21.48;52.28
62057;BME280;48016;50.284;18.860;2023-05-16T06:29:54;97714.66;;;21.59;51.45
62057;BME280;48016;50.284;18.860;2023-05-16T06:32:20;97716.77;;;21.69;51.02
62057;BME280;48016;50.284;18.860;2023-05-16T06:34:48;97718.23;;;21.80;50.56
62057;BME280;48016;50.284;18.860;2023-05-16T06:37:14;97716.32;;;21.98;50.32
62057;BME280;48016;50.284;18.860;2023-05-16T06:39:41;97715.12;;;22.15;49.81
62057;BME280;48016;50.284;18.860;2023-05-16T06:42:08;97715.92;;;22.29;49.62
62057;BME280;48016;50.284;18.860;2023-05-16T06:44:34;97710.34;;;22.48;48.81
62057;BME280;48016;50.284;18.860;2023-05-16T06:47:01;97710.27;;;22.64;48.41
62057;BME280;48016;50.284;18.860;2023-05-16T06:49:27;97712.83;;;22.79;47.58
62057;BME280;48016;50.284;18.860;2023-05-16T06:51:54;97714.80;;;22.97;48.60
62057;BME280;48016;50.284;18.860;2023-05-16T06:54:20;97713.30;;;23.14;48.21
62057;BME280;48016;50.284;18.860;2023-05-16T06:56:47;97707.93;;;23.28;47.85
62057;BME280;48016;50.284;18.860;2023-05-16T06:59:14;97711.00;;;23.40;47.55
62057;BME280;48016;50.284;18.860;2023-05-16T07:01:40;97711.27;;;23.38;46.55
62057;BME280;48016;50.284;18.860;2023-05-16T07:04:07;97716.94;;;23.41;47.06
62057;BME280;48016;50.284;18.860;2023-05-16T07:06:34;97722.26;;;23.49;46.81
62057;BME280;48016;50.284;18.860;2023-05-16T07:09:00;97720.14;;;23.55;46.36
62057;BME280;48016;50.284;18.860;2023-05-16T07:11:27;97720.58;;;23.59;45.86
62057;BME280;48016;50.284;18.860;2023-05-16T07:13:54;97718.42;;;23.55;45.04
62057;BME280;48016;50.284;18.860;2023-05-16T07:16:20;97718.36;;;23.47;45.55
62057;BME280;48016;50.284;18.860;2023-05-16T07:18:47;97721.73;;;23.35;45.02
62057;BME280;48016;50.284;18.860;2023-05-16T07:21:14;97720.02;;;23.24;44.54
62057;BME280;48016;50.284;18.860;2023-05-16T07:23:40;97720.69;;;23.11;44.60
62057;BME280;48016;50.284;18.860;2023-05-16T07:26:07;97722.08;;;22.94;44.99
62057;BME280;48016;50.284;18.860;2023-05-16T07:28:33;97721.41;;;22.84;45.04
62057;BME280;48016;50.284;18.860;2023-05-16T07:31:00;97718.73;;;22.74;45.02
62057;BME280;48016;50.284;18.860;2023-05-16T07:33:27;97728.67;;;22.67;45.89
62057;BME280;48016;50.284;18.860;2023-05-16T07:35:53;97733.95;;;22.61;45.89
62057;BME280;48016;50.284;18.860;2023-05-16T07:38:20;97738.09;;;22.52;45.56
62057;BME280;48016;50.284;18.860;2023-05-16T07:40:47;97741.25;;;22.44;45.81
62057;BME280;48016;50.284;18.860;2023-05-16T07:43:13;97734.08;;;22.32;46.08
62057;BME280;48016;50.284;18.860;2023-05-16T07:45:40;97736.30;;;22.27;45.77
62057;BME280;48016;50.284;18.860;2023-05-16T07:48:07;97742.26;;;22.29;45.67
62057;BME280;48016;50.284;18.860;2023-05-16T07:50:34;97750.23;;;22.37;45.69
62057;BME280;48016;50.284;18.860;2023-05-16T07:53:00;97760.05;;;22.44;46.56
62057;BME280;48016;50.284;18.860;2023-05-16T07:55:27;97762.31;;;22.57;46.60
62057;BME280;48016;50.284;18.860;2023-05-16T07:57:54;97764.05;;;22.67;46.22
62057;BME280;48016;50.284;18.860;2023-05-16T08:00:20;97774.29;;;22.73;45.20
62057;BME280;48016;50.284;18.860;2023-05-16T08:02:47;97773.06;;;22.68;44.01
62057;BME280;48016;50.284;18.860;2023-05-16T08:05:14;97780.06;;;22.63;44.68
62057;BME280;48016;50.284;18.860;2023-05-16T08:07:40;97783.73;;;22.62;44.81
62057;BME280;48016;50.284;18.860;2023-05-16T08:10:07;97784.06;;;22.73;44.78
62057;BME280;48016;50.284;18.860;2023-05-16T08:12:34;97778.97;;;22.82;44.60
62057;BME280;48016;50.284;18.860;2023-05-16T08:15:01;97784.25;;;22.94;45.44
62057;BME280;48016;50.284;18.860;2023-05-16T08:17:28;97787.67;;;23.09;44.77
62057;BME280;48016;50.284;18.860;2023-05-16T08:19:54;97792.45;;;23.05;44.83
62057;BME280;48016;50.284;18.860;2023-05-16T08:22:21;97789.89;;;22.98;44.83
62057;BME280;48016;50.284;18.860;2023-05-16T08:24:48;97788.43;;;23.11;45.18
62057;BME280;48016;50.284;18.860;2023-05-16T08:27:15;97786.21;;;23.32;45.31
62057;BME280;48016;50.284;18.860;2023-05-16T08:29:41;97785.15;;;23.42;44.11
62057;BME280;48016;50.284;18.860;2023-05-16T08:32:08;97787.50;;;23.42;43.67
62057;BME280;48016;50.284;18.860;2023-05-16T08:34:36;97792.08;;;23.28;43.78
62057;BME280;48016;50.284;18.860;2023-05-16T08:37:02;97792.31;;;22.93;43.70
62057;BME280;48016;50.284;18.860;2023-05-16T08:39:29;97794.76;;;22.75;43.35
62057;BME280;48016;50.284;18.860;2023-05-16T08:41:56;97796.15;;;22.74;43.76
62057;BME280;48016;50.284;18.860;2023-05-16T08:44:24;97791.43;;;22.83;43.77
62057;BME280;48016;50.284;18.860;2023-05-16T08:46:51;97788.70;;;22.80;44.12
62057;BME280;48016;50.284;18.860;2023-05-16T08:49:19;97782.55;;;22.65;44.39
62057;BME280;48016;50.284;18.860;2023-05-16T08:51:47;97777.64;;;22.69;44.30
62057;BME280;48016;50.284;18.860;2023-05-16T08:54:15;97775.69;;;22.83;44.74
62057;BME280;48016;50.284;18.860;2023-05-16T08:56:43;97774.36;;;22.91;44.20
62057;BME280;48016;50.284;18.860;2023-05-16T08:59:10;97773.58;;;22.91;43.70
62057;BME280;48016;50.284;18.860;2023-05-16T09:01:37;97773.05;;;22.89;43.46
62057;BME280;48016;50.284;18.860;2023-05-16T09:04:06;97776.42;;;22.86;43.68
62057;BME280;48016;50.284;18.860;2023-05-16T09:06:34;97776.12;;;22.78;43.27
62057;BME280;48016;50.284;18.860;2023-05-16T09:09:00;97778.28;;;22.72;43.94
62057;BME280;48016;50.284;18.860;2023-05-16T09:11:28;97776.23;;;22.62;44.29
62057;BME280;48016;50.284;18.860;2023-05-16T09:13:54;97778.05;;;22.54;44.42
62057;BME280;48016;50.284;18.860;2023-05-16T09:16:21;97774.84;;;22.52;44.27
62057;BME280;48016;50.284;18.860;2023-05-16T09:18:57;97774.55;;;22.58;44.73
62057;BME280;48016;50.284;18.860;2023-05-16T09:21:28;97773.92;;;22.58;44.74
62057;BME280;48016;50.284;18.860;2023-05-16T09:23:55;97778.73;;;22.53;45.21
62057;BME280;48016;50.284;18.860;2023-05-16T09:26:22;97778.45;;;22.54;45.24
62057;BME280;48016;50.284;18.860;2023-05-16T09:28:52;97775.29;;;22.64;45.17
62057;BME280;48016;50.284;18.860;2023-05-16T09:31:24;97771.85;;;22.83;45.15
62057;BME280;48016;50.284;18.860;2023-05-16T09:33:57;97774.57;;;22.97;43.70
62057;BME280;48016;50.284;18.860;2023-05-16T09:36:24;97772.85;;;22.77;41.33
62057;BME280;48016;50.284;18.860;2023-05-16T09:38:52;97770.77;;;22.68;42.46
62057;BME280;48016;50.284;18.860;2023-05-16T09:41:20;97777.52;;;22.75;42.80
62057;BME280;48016;50.284;18.860;2023-05-16T09:43:47;97785.07;;;22.80;42.63
62057;BME280;48016;50.284;18.860;2023-05-16T09:46:15;97783.75;;;22.93;43.20
62057;BME280;48016;50.284;18.860;2023-05-16T09:48:48;97782.70;;;23.06;42.80
62057;BME280;48016;50.284;18.860;2023-05-16T09:51:14;97779.04;;;23.10;41.51
62057;BME280;48016;50.284;18.860;2023-05-16T09:53:41;97780.48;;;23.06;41.41
62057;BME280;48016;50.284;18.860;2023-05-16T09:56:12;97784.08;;;22.89;41.54
62057;BME280;48016;50.284;18.860;2023-05-16T09:58:41;97782.23;;;22.70;42.08
62057;BME280;48016;50.284;18.860;2023-05-16T10:01:09;97778.77;;;22.75;43.83
62057;BME280;48016;50.284;18.860;2023-05-16T10:03:38;97777.40;;;22.79;42.70
62057;BME280;48016;50.284;18.860;2023-05-16T10:06:06;97781.60;;;22.86;42.65
62057;BME280;48016;50.284;18.860;2023-05-16T10:08:34;97781.56;;;22.84;41.92
62057;BME280;48016;50.284;18.860;2023-05-16T10:11:03;97774.02;;;22.90;42.86
62057;BME280;48016;50.284;18.860;2023-05-16T10:13:33;97765.67;;;23.02;43.32
62057;BME280;48016;50.284;18.860;2023-05-16T10:16:05;97764.01;;;23.13;41.24
62057;BME280;48016;50.284;18.860;2023-05-16T10:18:34;97765.80;;;23.10;40.36
62057;BME280;48016;50.284;18.860;2023-05-16T10:21:04;97772.29;;;23.11;41.12
62057;BME280;48016;50.284;18.860;2023-05-16T10:23:32;97772.05;;;22.98;40.71
62057;BME280;48016;50.284;18.860;2023-05-16T10:26:03;97767.57;;;22.93;41.52
62057;BME280;48016;50.284;18.860;2023-05-16T10:28:31;97764.88;;;23.00;41.35
62057;BME280;48016;50.284;18.860;2023-05-16T10:30:58;97767.21;;;22.99;39.38
62057;BME280;48016;50.284;18.860;2023-05-16T10:33:26;97765.48;;;22.68;38.86
62057;BME280;48016;50.284;18.860;2023-05-16T10:35:54;97762.74;;;22.58;40.00
62057;BME280;48016;50.284;18.860;2023-05-16T10:38:21;97762.08;;;22.54;40.14
62057;BME280;48016;50.284;18.860;2023-05-16T10:40:50;97770.98;;;22.57;40.00
62057;BME280;48016;50.284;18.860;2023-05-16T10:43:24;97775.38;;;22.57;40.09
62057;BME280;48016;50.284;18.860;2023-05-16T10:46:06;97768.38;;;22.51;40.27
62057;BME280;48016;50.284;18.860;2023-05-16T10:48:38;97762.81;;;22.55;40.04
62057;BME280;48016;50.284;18.860;2023-05-16T10:51:32;97768.05;;;22.53;40.15
62057;BME280;48016;50.284;18.860;2023-05-16T10:54:05;97770.06;;;22.68;40.56
62057;BME280;48016;50.284;18.860;2023-05-16T10:56:33;97765.69;;;22.83;40.08
62057;BME280;48016;50.284;18.860;2023-05-16T10:59:01;97764.10;;;22.95;40.64
62057;BME280;48016;50.284;18.860;2023-05-16T11:01:33;97764.67;;;23.12;40.27
62057;BME280;48016;50.284;18.860;2023-05-16T11:04:04;97766.99;;;23.24;40.08
62057;BME280;48016;50.284;18.860;2023-05-16T11:06:44;97764.41;;;23.27;39.12
62057;BME280;48016;50.284;18.860;2023-05-16T11:11:58;97759.30;;;23.34;39.38
62057;BME280;48016;50.284;18.860;2023-05-16T11:19:42;97751.52;;;23.23;38.66
62057;BME280;48016;50.284;18.860;2023-05-16T11:25:05;97741.39;;;22.76;38.84
62057;BME280;48016;50.284;18.860;2023-05-16T11:27:44;97736.23;;;22.61;38.70
62057;BME280;48016;50.284;18.860;2023-05-16T11:30:13;97727.84;;;22.49;38.88
62057;BME280;48016;50.284;18.860;2023-05-16T11:32:42;97728.12;;;22.35;38.56
62057;BME280;48016;50.284;18.860;2023-05-16T11:35:14;97731.50;;;22.25;38.72
62057;BME280;48016;50.284;18.860;2023-05-16T11:37:43;97731.75;;;22.23;38.86
62057;BME280;48016;50.284;18.860;2023-05-16T11:40:11;97737.39;;;22.27;38.72
62057;BME280;48016;50.284;18.860;2023-05-16T11:42:40;97736.55;;;22.08;38.40
62057;BME280;48016;50.284;18.860;2023-05-16T11:45:09;97726.48;;;22.01;39.06
62057;BME280;48016;50.284;18.860;2023-05-16T11:47:38;97732.17;;;22.04;39.38
62057;BME280;48016;50.284;18.860;2023-05-16T11:50:10;97732.26;;;22.19;39.69
62057;BME280;48016;50.284;18.860;2023-05-16T11:52:37;97733.42;;;22.23;39.15
62057;BME280;48016;50.284;18.860;2023-05-16T11:55:04;97737.17;;;22.22;39.00
62057;BME280;48016;50.284;18.860;2023-05-16T11:57:32;97734.89;;;22.06;38.76
62057;BME280;48016;50.284;18.860;2023-05-16T12:00:12;97733.11;;;22.02;39.19
62057;BME280;48016;50.284;18.860;2023-05-16T12:02:40;97735.52;;;22.10;39.49
62057;BME280;48016;50.284;18.860;2023-05-16T12:05:07;97735.91;;;22.20;39.06
62057;BME280;48016;50.284;18.860;2023-05-16T12:07:36;97740.34;;;22.18;38.90
62057;BME280;48016;50.284;18.860;2023-05-16T12:10:07;97735.26;;;22.03;38.46
62057;BME280;48016;50.284;18.860;2023-05-16T12:12:35;97739.90;;;21.96;38.81
62057;BME280;48016;50.284;18.860;2023-05-16T12:15:03;97741.49;;;21.96;38.64
62057;BME280;48016;50.284;18.860;2023-05-16T12:17:30;97736.31;;;21.89;38.99
62057;BME280;48016;50.284;18.860;2023-05-16T12:19:57;97736.36;;;21.96;39.07
62057;BME280;48016;50.284;18.860;2023-05-16T12:22:24;97733.61;;;21.96;38.89
62057;BME280;48016;50.284;18.860;2023-05-16T12:24:51;97728.17;;;21.88;39.45
62057;BME280;48016;50.284;18.860;2023-05-16T12:27:21;97732.39;;;21.94;39.86
62057;BME280;48016;50.284;18.860;2023-05-16T12:29:49;97725.95;;;21.97;40.08
62057;BME280;48016;50.284;18.860;2023-05-16T12:32:19;97726.67;;;21.88;39.18
62057;BME280;48016;50.284;18.860;2023-05-16T12:34:50;97723.20;;;21.73;39.32
62057;BME280;48016;50.284;18.860;2023-05-16T12:37:18;97727.17;;;21.53;39.18
62057;BME280;48016;50.284;18.860;2023-05-16T12:39:46;97727.11;;;21.20;39.01
62057;BME280;48016;50.284;18.860;2023-05-16T12:42:13;97718.95;;;20.97;39.73
62057;BME280;48016;50.284;18.860;2023-05-16T12:44:40;97716.88;;;20.81;40.46
62057;BME280;48016;50.284;18.860;2023-05-16T12:47:11;97708.79;;;20.62;41.57
62057;BME280;48016;50.284;18.860;2023-05-16T12:49:45;97708.36;;;20.65;41.80
62057;BME280;48016;50.284;18.860;2023-05-16T12:52:17;97703.92;;;20.79;42.55
62057;BME280;48016;50.284;18.860;2023-05-16T12:54:46;97706.39;;;20.92;42.45
62057;BME280;48016;50.284;18.860;2023-05-16T12:57:13;97704.69;;;20.95;42.74
62057;BME280;48016;50.284;18.860;2023-05-16T12:59:40;97705.23;;;20.90;42.44
62057;BME280;48016;50.284;18.860;2023-05-16T13:02:06;97703.33;;;20.82;42.70
62057;BME280;48016;50.284;18.860;2023-05-16T13:04:33;97704.17;;;20.77;42.64
62057;BME280;48016;50.284;18.860;2023-05-16T13:07:01;97698.48;;;20.73;42.26
62057;BME280;48016;50.284;18.860;2023-05-16T13:09:29;97704.31;;;20.72;42.10
62057;BME280;48016;50.284;18.860;2023-05-16T13:11:56;97701.30;;;20.63;42.33
62057;BME280;48016;50.284;18.860;2023-05-16T13:14:23;97704.52;;;20.52;42.16
62057;BME280;48016;50.284;18.860;2023-05-16T13:16:49;97701.23;;;20.43;42.33
62057;BME280;48016;50.284;18.860;2023-05-16T13:19:16;97701.86;;;20.41;43.02
62057;BME280;48016;50.284;18.860;2023-05-16T13:21:43;97699.27;;;20.43;43.07